To NAV CANADA Home Page Login to a new session Search on AWWS site Feedback and Comments Disclaimer Vers la page française équivalente Tips FAQ What's new on the site To the Forecasts and Observations / NOTAM section To "File a Flight Plan" website Publications and other links Update of the User's profile FIC Telephone Numbers My Weather Data Folder Route Weather Data Regional Weather Data Local Weather Data To the Forecasts and Observations / NOTAM section
Request Generated 03/23/2017 at 00:10:31 UTC . Weather information available at that time is displayed.

METAR/TAF

MONTREAL/PIERRE-ELLIOTT-TRUDEAU INTL/QC    

METAR CYUL 230000Z 30009KT 15SM SKC M08/M21 A3039 RMK SLP296=
METAR CYUL 222300Z 30014KT 30SM SKC M08/M22 A3037 RMK SLP287=
METAR CYUL 222200Z 28014G21KT 30SM SKC M07/M20 A3034 RMK SLP280=

TAF CYUL 222338Z 2300/2324 30012KT P6SM SKC
BECMG 2304/2306 28010KT
FM231700 26012G22KT P6SM FEW040
FM232300 22010KT P6SM BKN240
RMK NXT FCST BY 230300Z=
Your time UTC time
Weather data provided by Environment Canada and NAV CANADA